createdAt,value
2017-10-11T00:02:12.940Z,30.40
2017-10-11T00:04:43.008Z,26.35
2017-10-11T00:07:10.600Z,32.53
2017-10-11T00:09:38.187Z,33.27
2017-10-11T00:12:06.544Z,28.50
2017-10-11T00:14:34.908Z,30.58
2017-10-11T00:17:03.245Z,27.13
2017-10-11T00:19:30.841Z,31.50
2017-10-11T00:22:02.536Z,29.87
2017-10-11T00:24:30.897Z,29.13
2017-10-11T00:26:58.556Z,21.37
2017-10-11T00:29:26.624Z,21.63
2017-10-11T00:31:54.197Z,23.67
2017-10-11T00:34:22.532Z,33.23
2017-10-11T00:36:50.237Z,21.57
2017-10-11T00:39:17.809Z,26.60
2017-10-11T00:41:46.276Z,24.10
2017-10-11T00:44:13.839Z,19.67
2017-10-11T00:46:42.820Z,26.10
2017-10-11T00:49:10.388Z,21.83
2017-10-11T00:51:39.898Z,20.90
2017-10-11T00:54:07.467Z,20.07
2017-10-11T00:56:35.806Z,25.12
2017-10-11T00:59:03.500Z,20.43
2017-10-11T01:01:31.068Z,16.60
2017-10-11T01:03:59.432Z,20.87
2017-10-11T01:06:27.014Z,19.60
2017-10-11T01:08:55.383Z,20.97
2017-10-11T01:11:23.019Z,23.37
2017-10-11T01:13:50.787Z,22.83
2017-10-11T01:16:18.630Z,19.10
2017-10-11T01:18:46.395Z,22.00
2017-10-11T01:21:14.196Z,19.40
2017-10-11T01:23:43.307Z,20.47
2017-10-11T01:26:10.933Z,19.97
2017-10-11T01:28:38.523Z,20.03
2017-10-11T01:31:06.880Z,17.93
2017-10-11T01:33:34.449Z,21.10
2017-10-11T01:36:02.056Z,16.00
2017-10-11T01:38:29.689Z,15.30
2017-10-11T01:40:57.276Z,15.73
2017-10-11T01:43:24.844Z,16.13
2017-10-11T01:45:52.436Z,16.83
2017-10-11T01:48:20.000Z,14.90
2017-10-11T01:50:47.596Z,18.55
2017-10-11T01:53:15.165Z,17.97
2017-10-11T01:55:44.080Z,15.20
2017-10-11T01:58:11.655Z,20.33
2017-10-11T02:00:39.244Z,15.77
2017-10-11T02:03:06.809Z,16.03
2017-10-11T02:05:34.399Z,11.40
2017-10-11T02:08:02.733Z,20.63
2017-10-11T02:10:30.344Z,14.30
2017-10-11T02:12:58.672Z,12.57
2017-10-11T02:15:26.257Z,15.33
2017-10-11T02:17:53.868Z,15.65
2017-10-11T02:20:21.428Z,11.23
2017-10-11T02:22:49.016Z,15.55
2017-10-11T02:25:16.585Z,14.73
2017-10-11T02:27:44.380Z,19.87
2017-10-11T02:30:12.714Z,16.63
2017-10-11T02:32:42.733Z,13.73
2017-10-11T02:35:10.697Z,17.60
2017-10-11T02:37:38.261Z,18.17
2017-10-11T02:40:05.868Z,18.30
2017-10-11T02:42:33.515Z,17.20
2017-10-11T02:45:01.100Z,14.20
2017-10-11T02:47:29.436Z,14.27
2017-10-11T02:49:57.124Z,14.17
2017-10-11T02:52:25.461Z,15.83
2017-10-11T02:54:56.727Z,12.90
2017-10-11T02:57:24.824Z,12.77
2017-10-11T02:59:52.412Z,13.70
2017-10-11T03:02:19.992Z,15.17
2017-10-11T03:04:47.564Z,14.07
2017-10-11T03:07:15.169Z,14.93
2017-10-11T03:09:44.772Z,14.47
2017-10-11T03:12:12.333Z,14.40
2017-10-11T03:14:39.905Z,12.27
2017-10-11T03:17:08.268Z,12.60
2017-10-11T03:19:35.840Z,19.87
2017-10-11T03:22:04.288Z,12.50
2017-10-11T03:24:31.900Z,11.60
2017-10-11T03:27:00.247Z,12.90
2017-10-11T03:29:27.915Z,10.73
2017-10-11T03:31:55.529Z,14.40
2017-10-11T03:34:23.981Z,15.00
2017-10-11T03:36:51.717Z,13.87
2017-10-11T03:39:19.275Z,15.13
2017-10-11T03:41:46.949Z,13.47
2017-10-11T03:44:14.581Z,15.23
2017-10-11T03:46:43.073Z,13.33
2017-10-11T03:49:10.661Z,13.03
2017-10-11T03:51:38.227Z,12.00
2017-10-11T03:54:07.332Z,17.93
2017-10-11T03:56:35.696Z,13.40
2017-10-11T03:59:03.294Z,12.80
2017-10-11T04:01:30.863Z,11.37
2017-10-11T04:03:58.491Z,18.08
2017-10-11T04:06:26.829Z,15.77
2017-10-11T04:08:54.401Z,13.35
2017-10-11T04:11:23.505Z,10.33
2017-10-11T04:13:51.176Z,13.02
2017-10-11T04:16:18.840Z,10.97
2017-10-11T04:18:47.172Z,12.63
2017-10-11T04:21:14.787Z,10.73
2017-10-11T04:23:44.756Z,13.07
2017-10-11T04:26:12.325Z,13.30
2017-10-11T04:28:39.916Z,11.40
2017-10-11T04:31:07.484Z,12.83
2017-10-11T04:33:35.072Z,12.10
2017-10-11T04:36:02.637Z,14.23
2017-10-11T04:38:30.228Z,12.10
2017-10-11T04:40:57.796Z,13.07
2017-10-11T04:43:25.388Z,15.43
2017-10-11T04:45:53.573Z,14.90
2017-10-11T04:48:22.036Z,11.57
2017-10-11T04:50:49.609Z,16.62
2017-10-11T04:53:17.972Z,13.93
2017-10-11T04:55:45.543Z,12.43
2017-10-11T04:58:13.917Z,15.50
2017-10-11T05:00:42.884Z,11.23
2017-10-11T05:03:10.484Z,14.50
2017-10-11T05:05:38.817Z,10.67
2017-10-11T05:08:06.420Z,11.97
2017-10-11T05:10:34.757Z,12.73
2017-10-11T05:13:02.352Z,12.23
2017-10-11T05:15:30.016Z,12.50
2017-10-11T05:17:57.580Z,12.70
2017-10-11T05:20:25.942Z,10.93
2017-10-11T05:22:53.512Z,11.30
2017-10-11T05:25:21.104Z,13.00
2017-10-11T05:27:49.440Z,11.40
2017-10-11T05:30:17.029Z,12.75
2017-10-11T05:32:45.364Z,11.93
2017-10-11T05:35:12.984Z,14.00
2017-10-11T05:37:41.812Z,10.50
2017-10-11T05:40:09.389Z,11.43
2017-10-11T05:42:36.980Z,14.80
2017-10-11T05:45:05.320Z,13.63
2017-10-11T05:47:32.910Z,10.73
2017-10-11T05:50:01.253Z,12.13
2017-10-11T05:52:28.842Z,16.57
2017-10-11T05:54:56.418Z,12.77
2017-10-11T05:57:24.752Z,8.60
2017-10-11T05:59:52.345Z,12.80
2017-10-11T06:02:20.004Z,13.62
2017-10-11T06:04:47.603Z,13.62
2017-10-11T06:07:15.176Z,12.93
2017-10-11T06:09:44.260Z,10.20
2017-10-11T06:12:11.827Z,11.13
2017-10-11T06:14:39.416Z,8.33
2017-10-11T06:17:06.985Z,13.50
2017-10-11T06:19:34.548Z,8.93
2017-10-11T06:22:02.143Z,14.80
2017-10-11T06:24:30.604Z,12.20
2017-10-11T06:26:58.198Z,9.40
2017-10-11T06:29:26.554Z,14.07
2017-10-11T06:31:54.901Z,14.40
2017-10-11T06:34:22.492Z,14.43
2017-10-11T06:36:50.077Z,15.80
2017-10-11T06:39:18.465Z,13.90
2017-10-11T06:41:46.028Z,11.23
2017-10-11T06:44:13.592Z,12.70
2017-10-11T06:46:43.681Z,11.83
2017-10-11T06:49:12.016Z,14.40
2017-10-11T06:51:39.605Z,12.20
2017-10-11T06:54:07.268Z,10.95
2017-10-11T06:56:34.863Z,13.07
2017-10-11T06:59:03.200Z,10.20
2017-10-11T07:01:30.789Z,9.85
2017-10-11T07:03:59.151Z,11.77
2017-10-11T07:06:26.740Z,15.03
2017-10-11T07:08:54.312Z,10.27
2017-10-11T07:11:21.905Z,11.23
2017-10-11T07:13:49.473Z,12.13
2017-10-11T07:16:17.272Z,9.77
2017-10-11T07:18:45.631Z,10.93
2017-10-11T07:21:13.199Z,10.33
2017-10-11T07:23:42.089Z,11.93
2017-10-11T07:26:09.651Z,11.53
2017-10-11T07:28:37.240Z,8.63
2017-10-11T07:31:05.600Z,10.07
2017-10-11T07:33:33.959Z,7.10
2017-10-11T07:36:01.522Z,7.43
2017-10-11T07:38:29.196Z,6.43
2017-10-11T07:40:56.761Z,10.80
2017-10-11T07:43:24.418Z,4.93
2017-10-11T07:45:52.005Z,5.33
2017-10-11T07:48:20.341Z,7.90
2017-10-11T07:50:47.924Z,6.53
2017-10-11T07:53:15.490Z,7.27
2017-10-11T07:55:45.808Z,5.60
2017-10-11T07:58:13.376Z,10.20
2017-10-11T08:00:43.072Z,5.93
2017-10-11T08:03:10.656Z,7.00
2017-10-11T08:05:39.017Z,5.67
2017-10-11T08:08:07.356Z,6.10
2017-10-11T08:10:35.264Z,6.97
2017-10-11T08:13:02.942Z,10.70
2017-10-11T08:15:30.516Z,8.23
2017-10-11T08:17:58.104Z,13.05
2017-10-11T08:20:25.675Z,13.87
2017-10-11T08:22:53.272Z,13.70
2017-10-11T08:25:20.832Z,14.30
2017-10-11T08:27:48.440Z,16.12
2017-10-11T08:30:16.000Z,8.33
2017-10-11T08:32:43.824Z,11.30
2017-10-11T08:35:15.227Z,12.30
2017-10-11T08:37:43.715Z,7.60
2017-10-11T08:40:11.300Z,9.43
2017-10-11T08:42:39.683Z,13.18
2017-10-11T08:45:07.281Z,10.20
2017-10-11T08:47:35.612Z,8.97
2017-10-11T08:50:03.221Z,15.13
2017-10-11T08:52:30.784Z,17.20
2017-10-11T08:54:58.353Z,11.53
2017-10-11T08:57:25.968Z,13.67
2017-10-11T08:59:53.540Z,29.63
2017-10-11T09:02:21.132Z,22.33
2017-10-11T09:04:48.700Z,50.60
2017-10-11T09:07:16.321Z,13.97
2017-10-11T09:09:44.803Z,24.13
2017-10-11T09:12:12.565Z,16.10
2017-10-11T09:14:40.140Z,16.43
2017-10-11T09:17:08.488Z,14.55
2017-10-11T09:19:36.081Z,9.60
2017-10-11T09:22:04.421Z,14.13
2017-10-11T09:24:32.008Z,15.73
2017-10-11T09:26:59.583Z,19.40
2017-10-11T09:29:27.948Z,33.50
2017-10-11T09:31:55.520Z,16.75
2017-10-11T09:34:24.168Z,14.77
2017-10-11T09:36:51.737Z,8.65
2017-10-11T09:39:19.324Z,8.68
2017-10-11T09:41:47.651Z,18.15
2017-10-11T09:44:15.231Z,9.30
2017-10-11T09:46:43.949Z,9.20
2017-10-11T09:49:12.330Z,5.87
2017-10-11T09:51:41.596Z,6.23
2017-10-11T09:54:09.184Z,4.40
2017-10-11T09:56:36.743Z,6.73
2017-10-11T09:59:04.357Z,9.10
2017-10-11T10:01:31.916Z,8.87
2017-10-11T10:03:59.477Z,7.70
2017-10-11T10:06:27.284Z,5.22
2017-10-11T10:08:54.848Z,7.53
2017-10-11T10:11:22.412Z,8.00
2017-10-11T10:13:50.780Z,7.62
2017-10-11T10:16:18.344Z,14.23
2017-10-11T10:18:46.296Z,6.30
2017-10-11T10:21:13.876Z,4.20
2017-10-11T10:23:42.884Z,4.20
2017-10-11T10:26:11.235Z,8.07
2017-10-11T10:28:38.831Z,4.93
2017-10-11T10:31:07.164Z,8.17
2017-10-11T10:33:34.783Z,10.07
2017-10-11T10:36:03.133Z,7.90
2017-10-11T10:38:30.721Z,6.10
2017-10-11T10:40:59.061Z,8.32
2017-10-11T10:43:26.733Z,5.60
2017-10-11T10:45:54.299Z,6.23
2017-10-11T10:48:22.630Z,5.53
2017-10-11T10:50:50.235Z,5.10
2017-10-11T10:53:17.797Z,8.00
2017-10-11T10:55:45.392Z,10.90
2017-10-11T10:58:12.961Z,13.90
2017-10-11T11:00:42.829Z,21.80
2017-10-11T11:03:11.169Z,37.60
2017-10-11T11:05:38.772Z,46.03
2017-10-11T11:08:06.349Z,27.23
2017-10-11T11:10:35.016Z,35.40
2017-10-11T11:13:03.399Z,21.63
2017-10-11T11:15:30.977Z,25.37
2017-10-11T11:17:59.357Z,15.90
2017-10-11T11:20:27.716Z,49.60
2017-10-11T11:22:55.279Z,12.77
2017-10-11T11:25:22.876Z,9.63
2017-10-11T11:27:50.505Z,8.30
2017-10-11T11:30:18.088Z,9.17
2017-10-11T11:32:46.604Z,10.97
2017-10-11T11:35:14.562Z,14.00
2017-10-11T11:37:43.696Z,24.50
2017-10-11T11:40:11.289Z,16.40
2017-10-11T11:42:39.649Z,9.90
2017-10-11T11:45:07.248Z,21.00
2017-10-11T11:47:34.820Z,6.57
2017-10-11T11:50:02.404Z,15.93
2017-10-11T11:52:29.991Z,8.80
2017-10-11T11:54:57.761Z,9.00
2017-10-11T11:57:25.345Z,16.70
2017-10-11T11:59:52.929Z,11.00
2017-10-11T12:02:20.521Z,13.60
2017-10-11T12:04:48.083Z,18.23
2017-10-11T12:07:15.681Z,27.57
2017-10-11T12:09:44.641Z,25.13
2017-10-11T12:14:46.286Z,10.60
2017-10-11T12:17:13.868Z,7.60
2017-10-11T12:19:43.101Z,7.80
2017-10-11T12:22:11.456Z,9.00
2017-10-11T12:24:39.024Z,12.17
2017-10-11T12:27:06.649Z,11.03
2017-10-11T12:29:34.212Z,8.63
2017-10-11T12:32:01.777Z,10.40
2017-10-11T12:34:29.360Z,7.80
2017-10-11T12:36:56.937Z,6.93
2017-10-11T12:39:24.592Z,7.50
2017-10-11T12:41:53.672Z,8.57
2017-10-11T12:44:21.265Z,10.70
2017-10-11T12:46:49.600Z,11.57
2017-10-11T12:49:17.192Z,12.47
2017-10-11T12:51:44.760Z,10.70
2017-10-11T12:54:12.375Z,8.33
2017-10-11T12:56:39.950Z,16.40
2017-10-11T12:59:07.545Z,19.63
2017-10-11T13:01:35.116Z,15.50
2017-10-11T13:04:03.518Z,13.80
2017-10-11T13:06:31.140Z,17.27
2017-10-11T13:08:58.801Z,17.53
2017-10-11T13:11:26.367Z,15.53
2017-10-11T13:13:53.946Z,19.55
2017-10-11T13:16:21.583Z,20.07
2017-10-11T13:18:49.157Z,15.10
2017-10-11T13:21:17.516Z,13.60
2017-10-11T13:23:45.191Z,12.83
2017-10-11T13:26:12.896Z,14.03
2017-10-11T13:28:42.404Z,14.60
2017-10-11T13:31:09.964Z,9.47
2017-10-11T13:33:37.576Z,10.30
2017-10-11T13:36:05.164Z,11.53
2017-10-11T13:38:33.520Z,8.80
2017-10-11T13:41:01.181Z,10.90
2017-10-11T13:43:28.776Z,9.40
2017-10-11T13:45:56.405Z,7.97
2017-10-11T13:48:23.987Z,8.33
2017-10-11T13:50:52.346Z,7.95
2017-10-11T13:53:19.964Z,10.93
2017-10-11T13:55:47.764Z,8.77
2017-10-11T13:58:15.329Z,8.33
2017-10-11T14:00:43.843Z,15.48
2017-10-11T14:03:12.172Z,13.03
2017-10-11T14:05:39.757Z,8.20
2017-10-11T14:08:07.320Z,9.87
2017-10-11T14:10:34.922Z,8.20
2017-10-11T14:13:02.496Z,8.40
2017-10-11T14:15:30.087Z,9.53
2017-10-11T14:17:57.719Z,10.53
2017-10-11T14:20:25.348Z,8.77
2017-10-11T14:22:53.684Z,16.33
2017-10-11T14:25:21.322Z,19.17
2017-10-11T14:27:48.985Z,11.83
2017-10-11T14:30:16.596Z,8.80
2017-10-11T14:32:44.164Z,11.30
2017-10-11T14:35:12.496Z,8.33
2017-10-11T14:37:41.008Z,11.13
2017-10-11T14:40:08.600Z,8.93
2017-10-11T14:42:36.168Z,9.10
2017-10-11T14:45:03.796Z,10.97
2017-10-11T14:47:31.363Z,11.00
2017-10-11T14:49:59.692Z,8.20
2017-10-11T14:52:27.292Z,12.93
2017-10-11T14:54:54.863Z,9.57
2017-10-11T14:57:23.236Z,5.57
2017-10-11T14:59:51.594Z,5.40
2017-10-11T15:02:19.161Z,7.63
2017-10-11T15:04:46.752Z,8.95
2017-10-11T15:07:15.084Z,7.90
2017-10-11T15:09:44.057Z,6.35
2017-10-11T15:12:11.660Z,8.93
2017-10-11T15:14:39.249Z,12.13
2017-10-11T15:17:07.580Z,6.33
2017-10-11T15:19:35.175Z,5.83
2017-10-11T15:22:02.740Z,5.67
2017-10-11T15:24:31.068Z,7.30
2017-10-11T15:26:58.664Z,7.83
2017-10-11T15:29:26.228Z,8.25
2017-10-11T15:31:53.949Z,8.27
2017-10-11T15:34:21.525Z,10.77
2017-10-11T15:36:49.243Z,6.40
2017-10-11T15:39:17.567Z,6.37
2017-10-11T15:41:45.133Z,6.53
2017-10-11T15:44:12.724Z,5.13
2017-10-11T15:46:41.209Z,6.57
2017-10-11T15:49:09.568Z,7.73
2017-10-11T15:51:37.892Z,8.33
2017-10-11T15:54:05.480Z,5.80
2017-10-11T15:56:33.076Z,5.63
2017-10-11T15:59:00.669Z,5.37
2017-10-11T16:01:28.241Z,5.27
2017-10-11T16:03:55.837Z,5.85
2017-10-11T16:06:23.400Z,6.60
2017-10-11T16:08:51.289Z,10.03
2017-10-11T16:11:18.849Z,6.50
2017-10-11T16:13:46.420Z,6.50
2017-10-11T16:16:14.781Z,7.37
2017-10-11T16:18:43.884Z,7.18
2017-10-11T16:21:11.472Z,8.80
2017-10-11T16:23:39.800Z,6.95
2017-10-11T16:26:07.385Z,6.87
2017-10-11T16:28:34.953Z,8.80
2017-10-11T16:31:02.706Z,7.97
2017-10-11T16:33:30.272Z,5.80
2017-10-11T16:35:57.848Z,5.50
2017-10-11T16:38:26.545Z,6.67
2017-10-11T16:40:54.877Z,6.20
2017-10-11T16:43:22.465Z,7.73
2017-10-11T16:45:50.821Z,9.67
2017-10-11T16:48:18.807Z,6.13
2017-10-11T16:50:46.375Z,5.53
2017-10-11T16:53:13.935Z,6.03
2017-10-11T16:55:42.956Z,5.77
2017-10-11T16:58:10.524Z,5.47
2017-10-11T17:00:38.108Z,5.70
2017-10-11T17:03:05.683Z,6.10
2017-10-11T17:05:33.275Z,6.67
2017-10-11T17:08:01.703Z,4.93
2017-10-11T17:10:29.288Z,7.13
2017-10-11T17:12:56.852Z,9.90
2017-10-11T17:15:24.435Z,5.43
2017-10-11T17:17:51.999Z,7.10
2017-10-11T17:20:20.352Z,6.93
2017-10-11T17:22:47.916Z,7.37
2017-10-11T17:25:15.692Z,6.60
2017-10-11T17:27:44.949Z,6.40
2017-10-11T17:30:12.558Z,5.77
2017-10-11T17:32:40.274Z,5.10
2017-10-11T17:35:07.839Z,6.57
2017-10-11T17:37:35.405Z,5.50
2017-10-11T17:40:02.992Z,7.13
2017-10-11T17:42:30.996Z,7.40
2017-10-11T17:44:59.348Z,5.15
2017-10-11T17:47:26.907Z,4.83
2017-10-11T17:49:54.500Z,8.30
2017-10-11T17:52:22.844Z,5.87
2017-10-11T17:54:51.940Z,4.32
2017-10-11T17:57:19.502Z,3.70
2017-10-11T17:59:47.101Z,3.37
2017-10-11T18:02:14.772Z,9.10
2017-10-11T18:04:43.449Z,8.90
2017-10-11T18:07:11.076Z,5.73
2017-10-11T18:09:38.772Z,5.67
2017-10-11T18:12:07.100Z,4.77
2017-10-11T18:14:34.677Z,4.50
2017-10-11T18:17:02.268Z,4.53
2017-10-11T18:19:30.604Z,4.10
2017-10-11T18:21:58.188Z,6.00
2017-10-11T18:24:25.841Z,7.17
2017-10-11T18:26:54.228Z,5.43
2017-10-11T18:29:21.792Z,2.73
2017-10-11T18:31:49.440Z,3.70
2017-10-11T18:34:17.029Z,5.80
2017-10-11T18:36:45.368Z,4.90
2017-10-11T18:39:12.962Z,3.73
2017-10-11T18:41:42.060Z,5.50
2017-10-11T18:44:10.393Z,4.23
2017-10-11T18:46:37.989Z,7.57
2017-10-11T18:49:05.596Z,4.97
2017-10-11T18:51:33.201Z,4.78
2017-10-11T18:54:01.538Z,4.50
2017-10-11T18:56:29.156Z,5.10
2017-10-11T18:58:57.524Z,3.47
2017-10-11T19:01:25.112Z,4.10
2017-10-11T19:03:53.449Z,4.93
2017-10-11T19:06:21.037Z,6.68
2017-10-11T19:08:49.408Z,5.30
2017-10-11T19:11:17.059Z,5.33
2017-10-11T19:13:44.620Z,4.40
2017-10-11T19:16:12.184Z,7.67
2017-10-11T19:18:39.778Z,5.97
2017-10-11T19:21:08.104Z,4.80
2017-10-11T19:23:35.704Z,5.50
2017-10-11T19:26:04.040Z,5.37
2017-10-11T19:28:31.656Z,6.53
2017-10-11T19:30:59.225Z,4.93
2017-10-11T19:33:26.788Z,6.37
2017-10-11T19:35:54.373Z,6.90
2017-10-11T19:38:21.936Z,4.32
2017-10-11T19:40:49.524Z,6.82
2017-10-11T19:43:17.411Z,4.60
2017-10-11T19:45:45.788Z,5.30
2017-10-11T19:48:14.125Z,3.80
2017-10-11T19:50:43.820Z,4.43
2017-10-11T19:55:37.868Z,4.70
2017-10-11T19:58:06.200Z,4.20
2017-10-11T20:00:46.644Z,5.80
2017-10-11T20:03:14.204Z,5.33
2017-10-11T20:05:43.088Z,4.10
2017-10-11T20:08:10.716Z,5.10
2017-10-11T20:10:38.303Z,4.68
2017-10-11T20:13:06.640Z,4.97
2017-10-11T20:15:34.232Z,4.20
2017-10-11T20:18:02.563Z,2.87
2017-10-11T20:20:30.356Z,5.73
2017-10-11T20:22:57.924Z,3.90
2017-10-11T20:25:25.484Z,4.47
2017-10-11T20:27:53.468Z,3.55
2017-10-11T20:30:21.797Z,3.40
2017-10-11T20:32:49.392Z,5.28
2017-10-11T20:35:16.985Z,3.20
2017-10-11T20:37:44.548Z,3.93
2017-10-11T20:40:12.136Z,3.20
2017-10-11T20:42:39.696Z,6.40
2017-10-11T20:45:07.280Z,3.77
2017-10-11T20:47:34.961Z,4.50
2017-10-11T20:50:03.540Z,4.20
2017-10-11T20:52:31.112Z,6.50
2017-10-11T20:54:59.464Z,3.63
2017-10-11T20:57:27.053Z,4.40
2017-10-11T20:59:55.388Z,3.47
2017-10-11T21:02:22.988Z,4.80
2017-10-11T21:04:50.557Z,3.10
2017-10-11T21:07:18.908Z,2.40
2017-10-11T21:09:46.471Z,5.47
2017-10-11T21:12:14.081Z,3.47
2017-10-11T21:14:42.227Z,7.35
2017-10-11T21:17:10.599Z,3.60
2017-10-11T21:19:38.184Z,3.65
2017-10-11T21:22:06.536Z,4.33
2017-10-11T21:24:34.196Z,3.17
2017-10-11T21:27:01.763Z,4.97
2017-10-11T21:29:30.093Z,4.23
2017-10-11T21:31:57.693Z,6.37
2017-10-11T21:34:25.260Z,4.53
2017-10-11T21:36:53.032Z,3.80
2017-10-11T21:39:20.595Z,9.30
2017-10-11T21:41:48.156Z,4.06
2017-10-11T21:44:16.515Z,4.10
2017-10-11T21:46:44.088Z,6.95
2017-10-11T21:49:11.744Z,4.73
2017-10-11T21:51:39.308Z,3.57
2017-10-11T21:54:08.409Z,4.93
2017-10-11T21:56:35.972Z,7.73
2017-10-11T21:59:03.559Z,3.80
2017-10-11T22:01:31.124Z,6.80
2017-10-11T22:03:58.864Z,3.97
2017-10-11T22:06:27.228Z,3.17
2017-10-11T22:08:54.797Z,7.40
2017-10-11T22:11:22.380Z,4.53
2017-10-11T22:13:50.717Z,4.47
2017-10-11T22:16:18.313Z,4.00
2017-10-11T22:18:46.648Z,5.17
2017-10-11T22:21:14.231Z,4.23
2017-10-11T22:23:42.988Z,11.10
2017-10-11T22:26:10.581Z,3.67
2017-10-11T22:28:38.156Z,3.87
2017-10-11T22:31:06.508Z,4.27
2017-10-11T22:33:34.072Z,5.10
2017-10-11T22:36:02.421Z,7.03
2017-10-11T22:38:30.016Z,5.80
2017-10-11T22:40:57.576Z,2.50
2017-10-11T22:43:26.775Z,3.30
2017-10-11T22:45:54.444Z,5.07
2017-10-11T22:48:22.032Z,5.00
2017-10-11T22:50:50.356Z,6.57
2017-10-11T22:53:17.940Z,3.30
2017-10-11T22:55:45.604Z,4.53
2017-10-11T22:58:13.192Z,3.10
2017-10-11T23:00:42.274Z,4.43
2017-10-11T23:03:10.641Z,3.20
2017-10-11T23:05:38.199Z,4.53
2017-10-11T23:08:05.788Z,2.60
2017-10-11T23:10:34.120Z,2.70
2017-10-11T23:13:01.699Z,9.50
2017-10-11T23:15:29.364Z,3.15
2017-10-11T23:17:57.023Z,3.63
2017-10-11T23:20:24.872Z,4.77
2017-10-11T23:22:52.648Z,3.85
2017-10-11T23:25:20.209Z,2.10
2017-10-11T23:27:48.541Z,4.10
2017-10-11T23:30:16.125Z,2.70
2017-10-11T23:32:44.040Z,4.53
2017-10-11T23:35:12.397Z,2.83
2017-10-11T23:37:39.963Z,4.32
2017-10-11T23:40:07.548Z,3.60
2017-10-11T23:42:35.907Z,3.27
2017-10-11T23:45:03.513Z,3.00
2017-10-11T23:47:31.078Z,5.60
2017-10-11T23:49:58.646Z,3.03
2017-10-11T23:52:26.231Z,7.30
2017-10-11T23:54:53.792Z,4.03
2017-10-11T23:57:21.376Z,4.27
2017-10-11T23:59:48.945Z,4.73
